sensor_id;sensor_type;location;lat;lon;timestamp;temperature;humidity
4520;DHT22;2272;49.226;8.108;2023-03-01T00:00:44;-1.60;99.90
4520;DHT22;2272;49.226;8.108;2023-03-01T00:03:12;-1.60;99.90
4520;DHT22;2272;49.226;8.108;2023-03-01T00:05:43;-1.60;99.90
4520;DHT22;2272;49.226;8.108;2023-03-01T00:08:10;-1.70;99.90
4520;DHT22;2272;49.226;8.108;2023-03-01T00:10:39;-1.70;99.90
4520;DHT22;2272;49.226;8.108;2023-03-01T00:13:05;-1.70;99.90
4520;DHT22;2272;49.226;8.108;2023-03-01T00:15:32;-1.60;99.90
4520;DHT22;2272;49.226;8.108;2023-03-01T00:18:00;-1.70;99.90
4520;DHT22;2272;49.226;8.108;2023-03-01T00:20:27;-1.70;99.90
4520;DHT22;2272;49.226;8.108;2023-03-01T00:22:53;-1.80;99.90
4520;DHT22;2272;49.226;8.108;2023-03-01T00:25:20;-1.80;99.90
4520;DHT22;2272;49.226;8.108;2023-03-01T00:27:48;-1.80;99.90
4520;DHT22;2272;49.226;8.108;2023-03-01T00:30:15;-1.80;99.90
4520;DHT22;2272;49.226;8.108;2023-03-01T00:32:42;-1.80;99.90
4520;DHT22;2272;49.226;8.108;2023-03-01T00:35:08;-1.80;99.90
4520;DHT22;2272;49.226;8.108;2023-03-01T00:37:35;-1.70;99.90
4520;DHT22;2272;49.226;8.108;2023-03-01T00:40:02;-1.70;99.90
4520;DHT22;2272;49.226;8.108;2023-03-01T00:42:31;-1.70;99.90
4520;DHT22;2272;49.226;8.108;2023-03-01T00:44:59;-1.70;99.90
4520;DHT22;2272;49.226;8.108;2023-03-01T00:47:28;-1.80;99.90
4520;DHT22;2272;49.226;8.108;2023-03-01T00:49:55;-1.80;99.90
4520;DHT22;2272;49.226;8.108;2023-03-01T00:52:21;-1.80;99.90
4520;DHT22;2272;49.226;8.108;2023-03-01T00:54:48;-1.80;99.90
4520;DHT22;2272;49.226;8.108;2023-03-01T00:57:18;-1.90;99.90
4520;DHT22;2272;49.226;8.108;2023-03-01T00:59:44;-1.90;99.90
4520;DHT22;2272;49.226;8.108;2023-03-01T01:02:12;-1.90;99.90
4520;DHT22;2272;49.226;8.108;2023-03-01T01:04:39;-1.90;99.90
4520;DHT22;2272;49.226;8.108;2023-03-01T01:07:06;-1.90;99.90
4520;DHT22;2272;49.226;8.108;2023-03-01T01:09:32;-1.90;99.90
4520;DHT22;2272;49.226;8.108;2023-03-01T01:11:59;-1.80;99.90
4520;DHT22;2272;49.226;8.108;2023-03-01T01:14:26;-1.80;99.90
4520;DHT22;2272;49.226;8.108;2023-03-01T01:16:53;-1.80;99.90
4520;DHT22;2272;49.226;8.108;2023-03-01T01:19:22;-1.80;99.90
4520;DHT22;2272;49.226;8.108;2023-03-01T01:21:49;-1.80;99.90
4520;DHT22;2272;49.226;8.108;2023-03-01T01:24:16;-1.80;99.90
4520;DHT22;2272;49.226;8.108;2023-03-01T01:26:44;-1.80;99.90
4520;DHT22;2272;49.226;8.108;2023-03-01T01:29:11;-1.80;99.90
4520;DHT22;2272;49.226;8.108;2023-03-01T01:31:40;-1.90;99.90
4520;DHT22;2272;49.226;8.108;2023-03-01T01:34:09;-1.90;99.90
4520;DHT22;2272;49.226;8.108;2023-03-01T01:36:40;-1.90;99.90
4520;DHT22;2272;49.226;8.108;2023-03-01T01:39:06;-1.90;99.90
4520;DHT22;2272;49.226;8.108;2023-03-01T01:41:36;-1.90;99.90
4520;DHT22;2272;49.226;8.108;2023-03-01T01:44:15;-2.00;99.90
4520;DHT22;2272;49.226;8.108;2023-03-01T01:46:45;-2.00;99.90
4520;DHT22;2272;49.226;8.108;2023-03-01T01:49:19;-2.00;99.90
4520;DHT22;2272;49.226;8.108;2023-03-01T01:51:55;-2.00;99.90
4520;DHT22;2272;49.226;8.108;2023-03-01T01:54:25;-2.00;99.90
4520;DHT22;2272;49.226;8.108;2023-03-01T01:56:56;-2.00;99.90
4520;DHT22;2272;49.226;8.108;2023-03-01T01:59:25;-2.10;99.90
4520;DHT22;2272;49.226;8.108;2023-03-01T02:01:54;-2.00;99.90
4520;DHT22;2272;49.226;8.108;2023-03-01T02:04:21;-2.00;99.90
4520;DHT22;2272;49.226;8.108;2023-03-01T02:06:55;-2.00;99.90
4520;DHT22;2272;49.226;8.108;2023-03-01T02:09:24;-2.00;99.90
4520;DHT22;2272;49.226;8.108;2023-03-01T02:11:52;-1.90;99.90
4520;DHT22;2272;49.226;8.108;2023-03-01T02:14:19;-1.90;99.90
4520;DHT22;2272;49.226;8.108;2023-03-01T02:16:46;-1.90;99.90
4520;DHT22;2272;49.226;8.108;2023-03-01T02:19:19;-2.00;99.90
4520;DHT22;2272;49.226;8.108;2023-03-01T02:21:58;-2.10;99.90
4520;DHT22;2272;49.226;8.108;2023-03-01T02:24:31;-2.10;99.90
4520;DHT22;2272;49.226;8.108;2023-03-01T02:27:00;-2.10;99.90
4520;DHT22;2272;49.226;8.108;2023-03-01T02:29:28;-2.20;99.90
4520;DHT22;2272;49.226;8.108;2023-03-01T02:31:57;-2.10;99.90
4520;DHT22;2272;49.226;8.108;2023-03-01T02:34:24;-2.10;99.90
4520;DHT22;2272;49.226;8.108;2023-03-01T02:36:55;-2.10;99.90
4520;DHT22;2272;49.226;8.108;2023-03-01T02:39:26;-2.00;99.90
4520;DHT22;2272;49.226;8.108;2023-03-01T02:41:56;-2.10;99.90
4520;DHT22;2272;49.226;8.108;2023-03-01T02:44:23;-2.20;99.90
4520;DHT22;2272;49.226;8.108;2023-03-01T02:46:52;-2.20;99.90
4520;DHT22;2272;49.226;8.108;2023-03-01T02:49:22;-2.20;99.90
4520;DHT22;2272;49.226;8.108;2023-03-01T02:54:48;-2.20;99.90
4520;DHT22;2272;49.226;8.108;2023-03-01T02:57:16;-2.20;99.90
4520;DHT22;2272;49.226;8.108;2023-03-01T02:59:44;-2.10;99.90
4520;DHT22;2272;49.226;8.108;2023-03-01T03:02:21;-2.10;99.90
4520;DHT22;2272;49.226;8.108;2023-03-01T03:05:02;-2.10;99.90
4520;DHT22;2272;49.226;8.108;2023-03-01T03:07:28;-2.20;99.90
4520;DHT22;2272;49.226;8.108;2023-03-01T03:09:55;-2.20;99.90
4520;DHT22;2272;49.226;8.108;2023-03-01T03:12:22;-2.30;99.90
4520;DHT22;2272;49.226;8.108;2023-03-01T03:14:48;-2.30;99.90
4520;DHT22;2272;49.226;8.108;2023-03-01T03:17:15;-2.30;99.90
4520;DHT22;2272;49.226;8.108;2023-03-01T03:19:43;-2.30;99.90
4520;DHT22;2272;49.226;8.108;2023-03-01T03:22:10;-2.30;99.90
4520;DHT22;2272;49.226;8.108;2023-03-01T03:24:37;-2.20;99.90
4520;DHT22;2272;49.226;8.108;2023-03-01T03:27:04;-2.30;99.90
4520;DHT22;2272;49.226;8.108;2023-03-01T03:29:32;-2.20;99.90
4520;DHT22;2272;49.226;8.108;2023-03-01T03:31:59;-2.30;99.90
4520;DHT22;2272;49.226;8.108;2023-03-01T03:34:25;-2.30;99.90
4520;DHT22;2272;49.226;8.108;2023-03-01T03:36:54;-2.40;99.90
4520;DHT22;2272;49.226;8.108;2023-03-01T03:39:25;-2.40;99.90
4520;DHT22;2272;49.226;8.108;2023-03-01T03:41:52;-2.40;99.90
4520;DHT22;2272;49.226;8.108;2023-03-01T03:44:19;-2.40;99.90
4520;DHT22;2272;49.226;8.108;2023-03-01T03:46:45;-2.40;99.90
4520;DHT22;2272;49.226;8.108;2023-03-01T03:49:12;-2.50;99.90
4520;DHT22;2272;49.226;8.108;2023-03-01T03:51:39;-2.50;99.90
4520;DHT22;2272;49.226;8.108;2023-03-01T03:54:07;-2.50;99.90
4520;DHT22;2272;49.226;8.108;2023-03-01T03:56:34;-2.50;99.90
4520;DHT22;2272;49.226;8.108;2023-03-01T03:59:01;-2.50;99.90
4520;DHT22;2272;49.226;8.108;2023-03-01T04:01:27;-2.60;99.90
4520;DHT22;2272;49.226;8.108;2023-03-01T04:03:54;-2.60;99.90
4520;DHT22;2272;49.226;8.108;2023-03-01T04:06:21;-2.60;99.90
4520;DHT22;2272;49.226;8.108;2023-03-01T04:08:48;-2.60;99.90
4520;DHT22;2272;49.226;8.108;2023-03-01T04:11:17;-2.70;99.90
4520;DHT22;2272;49.226;8.108;2023-03-01T04:13:54;-2.70;99.90
4520;DHT22;2272;49.226;8.108;2023-03-01T04:16:21;-2.80;99.90
4520;DHT22;2272;49.226;8.108;2023-03-01T04:18:48;-2.70;99.90
4520;DHT22;2272;49.226;8.108;2023-03-01T04:21:15;-2.70;99.90
4520;DHT22;2272;49.226;8.108;2023-03-01T04:23:42;-2.70;99.90
4520;DHT22;2272;49.226;8.108;2023-03-01T04:26:09;-2.60;99.90
4520;DHT22;2272;49.226;8.108;2023-03-01T04:28:38;-2.60;99.90
4520;DHT22;2272;49.226;8.108;2023-03-01T04:31:10;-2.60;99.90
4520;DHT22;2272;49.226;8.108;2023-03-01T04:33:39;-2.60;99.90
4520;DHT22;2272;49.226;8.108;2023-03-01T04:36:08;-2.50;99.90
4520;DHT22;2272;49.226;8.108;2023-03-01T04:38:36;-2.50;99.90
4520;DHT22;2272;49.226;8.108;2023-03-01T04:41:04;-2.60;99.90
4520;DHT22;2272;49.226;8.108;2023-03-01T04:43:30;-2.60;99.90
4520;DHT22;2272;49.226;8.108;2023-03-01T04:46:01;-2.70;99.90
4520;DHT22;2272;49.226;8.108;2023-03-01T04:48:29;-2.70;99.90
4520;DHT22;2272;49.226;8.108;2023-03-01T04:50:56;-2.70;99.90
4520;DHT22;2272;49.226;8.108;2023-03-01T04:53:22;-2.70;99.90
4520;DHT22;2272;49.226;8.108;2023-03-01T04:55:50;-2.80;99.90
4520;DHT22;2272;49.226;8.108;2023-03-01T04:58:16;-2.80;99.90
4520;DHT22;2272;49.226;8.108;2023-03-01T05:00:43;-2.80;99.90
4520;DHT22;2272;49.226;8.108;2023-03-01T05:03:11;-2.80;99.90
4520;DHT22;2272;49.226;8.108;2023-03-01T05:05:44;-2.70;99.90
4520;DHT22;2272;49.226;8.108;2023-03-01T05:08:11;-2.70;99.90
4520;DHT22;2272;49.226;8.108;2023-03-01T05:10:44;-2.70;99.90
4520;DHT22;2272;49.226;8.108;2023-03-01T05:13:12;-2.60;99.90
4520;DHT22;2272;49.226;8.108;2023-03-01T05:15:40;-2.60;99.90
4520;DHT22;2272;49.226;8.108;2023-03-01T05:18:07;-2.60;99.90
4520;DHT22;2272;49.226;8.108;2023-03-01T05:20:38;-2.60;99.90
4520;DHT22;2272;49.226;8.108;2023-03-01T05:23:05;-2.60;99.90
4520;DHT22;2272;49.226;8.108;2023-03-01T05:25:32;-2.50;99.90
4520;DHT22;2272;49.226;8.108;2023-03-01T05:28:00;-2.50;99.90
4520;DHT22;2272;49.226;8.108;2023-03-01T05:30:30;-2.50;99.90
4520;DHT22;2272;49.226;8.108;2023-03-01T05:32:56;-2.50;99.90
4520;DHT22;2272;49.226;8.108;2023-03-01T05:35:24;-2.40;99.90
4520;DHT22;2272;49.226;8.108;2023-03-01T05:37:52;-2.40;99.90
4520;DHT22;2272;49.226;8.108;2023-03-01T05:40:21;-2.40;99.90
4520;DHT22;2272;49.226;8.108;2023-03-01T05:42:52;-2.40;99.90
4520;DHT22;2272;49.226;8.108;2023-03-01T05:45:20;-2.40;99.90
4520;DHT22;2272;49.226;8.108;2023-03-01T05:47:48;-2.40;99.90
4520;DHT22;2272;49.226;8.108;2023-03-01T05:50:17;-2.40;99.90
4520;DHT22;2272;49.226;8.108;2023-03-01T05:52:46;-2.40;99.90
4520;DHT22;2272;49.226;8.108;2023-03-01T05:55:15;-2.40;99.90
4520;DHT22;2272;49.226;8.108;2023-03-01T05:57:42;-2.50;99.90
4520;DHT22;2272;49.226;8.108;2023-03-01T06:00:11;-2.50;99.90
4520;DHT22;2272;49.226;8.108;2023-03-01T06:02:39;-2.50;99.90
4520;DHT22;2272;49.226;8.108;2023-03-01T06:05:06;-2.50;99.90
4520;DHT22;2272;49.226;8.108;2023-03-01T06:07:34;-2.50;99.90
4520;DHT22;2272;49.226;8.108;2023-03-01T06:10:01;-2.50;99.90
4520;DHT22;2272;49.226;8.108;2023-03-01T06:12:31;-2.50;99.90
4520;DHT22;2272;49.226;8.108;2023-03-01T06:14:58;-2.50;99.90
4520;DHT22;2272;49.226;8.108;2023-03-01T06:17:26;-2.50;99.90
4520;DHT22;2272;49.226;8.108;2023-03-01T06:19:55;-2.50;99.90
4520;DHT22;2272;49.226;8.108;2023-03-01T06:22:22;-2.50;99.90
4520;DHT22;2272;49.226;8.108;2023-03-01T06:24:48;-2.50;99.90
4520;DHT22;2272;49.226;8.108;2023-03-01T06:27:16;-2.40;99.90
4520;DHT22;2272;49.226;8.108;2023-03-01T06:29:44;-2.40;99.90
4520;DHT22;2272;49.226;8.108;2023-03-01T06:32:10;-2.40;99.90
4520;DHT22;2272;49.226;8.108;2023-03-01T06:34:37;-2.30;99.90
4520;DHT22;2272;49.226;8.108;2023-03-01T06:37:04;-2.30;99.90
4520;DHT22;2272;49.226;8.108;2023-03-01T06:39:31;-2.30;99.90
4520;DHT22;2272;49.226;8.108;2023-03-01T06:41:57;-2.20;99.90
4520;DHT22;2272;49.226;8.108;2023-03-01T06:44:24;-2.20;99.90
4520;DHT22;2272;49.226;8.108;2023-03-01T06:46:52;-2.10;99.90
4520;DHT22;2272;49.226;8.108;2023-03-01T06:49:19;-2.10;99.90
4520;DHT22;2272;49.226;8.108;2023-03-01T06:51:46;-2.10;99.90
4520;DHT22;2272;49.226;8.108;2023-03-01T06:54:13;-2.00;99.90
4520;DHT22;2272;49.226;8.108;2023-03-01T06:56:40;-1.90;99.90
4520;DHT22;2272;49.226;8.108;2023-03-01T06:59:07;-1.90;99.90
4520;DHT22;2272;49.226;8.108;2023-03-01T07:01:34;-1.80;99.90
4520;DHT22;2272;49.226;8.108;2023-03-01T07:04:02;-1.70;99.90
4520;DHT22;2272;49.226;8.108;2023-03-01T07:06:28;-1.60;99.90
4520;DHT22;2272;49.226;8.108;2023-03-01T07:08:55;-1.50;99.90
4520;DHT22;2272;49.226;8.108;2023-03-01T07:11:22;-1.40;99.90
4520;DHT22;2272;49.226;8.108;2023-03-01T07:13:49;-1.30;99.90
4520;DHT22;2272;49.226;8.108;2023-03-01T07:16:15;-1.20;99.90
4520;DHT22;2272;49.226;8.108;2023-03-01T07:18:42;-1.10;99.90
4520;DHT22;2272;49.226;8.108;2023-03-01T07:21:13;-1.00;99.90
4520;DHT22;2272;49.226;8.108;2023-03-01T07:26:07;-1.00;99.90
4520;DHT22;2272;49.226;8.108;2023-03-01T07:28:34;-1.00;99.90
4520;DHT22;2272;49.226;8.108;2023-03-01T07:31:04;-0.90;99.90
4520;DHT22;2272;49.226;8.108;2023-03-01T07:33:31;-0.90;99.90
4520;DHT22;2272;49.226;8.108;2023-03-01T07:35:58;-0.90;99.90
4520;DHT22;2272;49.226;8.108;2023-03-01T07:38:27;-0.80;99.90
4520;DHT22;2272;49.226;8.108;2023-03-01T07:40:57;-0.70;99.90
4520;DHT22;2272;49.226;8.108;2023-03-01T07:43:24;-0.70;99.90
4520;DHT22;2272;49.226;8.108;2023-03-01T07:45:51;-0.60;99.90
4520;DHT22;2272;49.226;8.108;2023-03-01T07:48:17;-0.50;99.90
4520;DHT22;2272;49.226;8.108;2023-03-01T07:50:44;-0.40;99.90
4520;DHT22;2272;49.226;8.108;2023-03-01T07:53:10;-0.40;99.90
4520;DHT22;2272;49.226;8.108;2023-03-01T07:55:38;-0.40;99.90
4520;DHT22;2272;49.226;8.108;2023-03-01T07:58:05;-0.30;99.90
4520;DHT22;2272;49.226;8.108;2023-03-01T08:00:32;-0.30;99.90
4520;DHT22;2272;49.226;8.108;2023-03-01T08:02:59;-0.20;99.90
4520;DHT22;2272;49.226;8.108;2023-03-01T08:05:26;-0.20;99.90
4520;DHT22;2272;49.226;8.108;2023-03-01T08:07:53;-0.10;99.90
4520;DHT22;2272;49.226;8.108;2023-03-01T08:10:20;-0.10;99.90
4520;DHT22;2272;49.226;8.108;2023-03-01T08:12:48;0.00;99.90
4520;DHT22;2272;49.226;8.108;2023-03-01T08:15:17;0.00;99.90
4520;DHT22;2272;49.226;8.108;2023-03-01T08:17:44;0.10;99.90
4520;DHT22;2272;49.226;8.108;2023-03-01T08:20:11;0.10;99.90
4520;DHT22;2272;49.226;8.108;2023-03-01T08:22:38;0.20;99.90
4520;DHT22;2272;49.226;8.108;2023-03-01T08:25:05;0.20;99.90
4520;DHT22;2272;49.226;8.108;2023-03-01T08:27:32;0.30;99.90
4520;DHT22;2272;49.226;8.108;2023-03-01T08:30:00;0.30;99.90
4520;DHT22;2272;49.226;8.108;2023-03-01T08:32:26;0.40;99.90
4520;DHT22;2272;49.226;8.108;2023-03-01T08:34:53;0.40;99.90
4520;DHT22;2272;49.226;8.108;2023-03-01T08:37:20;0.60;99.90
4520;DHT22;2272;49.226;8.108;2023-03-01T08:39:47;0.70;99.90
4520;DHT22;2272;49.226;8.108;2023-03-01T08:42:13;0.70;99.90
4520;DHT22;2272;49.226;8.108;2023-03-01T08:44:40;0.80;99.90
4520;DHT22;2272;49.226;8.108;2023-03-01T08:47:08;0.80;99.90
4520;DHT22;2272;49.226;8.108;2023-03-01T08:49:35;0.90;99.90
4520;DHT22;2272;49.226;8.108;2023-03-01T08:52:02;1.00;99.90
4520;DHT22;2272;49.226;8.108;2023-03-01T08:54:28;1.00;99.90
4520;DHT22;2272;49.226;8.108;2023-03-01T08:56:55;1.10;99.90
4520;DHT22;2272;49.226;8.108;2023-03-01T08:59:25;1.20;99.90
4520;DHT22;2272;49.226;8.108;2023-03-01T09:01:52;1.20;99.90
4520;DHT22;2272;49.226;8.108;2023-03-01T09:04:20;1.30;99.90
4520;DHT22;2272;49.226;8.108;2023-03-01T09:06:46;1.40;99.90
4520;DHT22;2272;49.226;8.108;2023-03-01T09:09:15;1.40;99.90
4520;DHT22;2272;49.226;8.108;2023-03-01T09:11:42;1.50;99.90
4520;DHT22;2272;49.226;8.108;2023-03-01T09:14:11;1.70;99.90
4520;DHT22;2272;49.226;8.108;2023-03-01T09:16:38;1.80;99.90
4520;DHT22;2272;49.226;8.108;2023-03-01T09:19:05;1.90;99.90
4520;DHT22;2272;49.226;8.108;2023-03-01T09:21:33;2.00;99.90
4520;DHT22;2272;49.226;8.108;2023-03-01T09:24:00;2.10;99.90
4520;DHT22;2272;49.226;8.108;2023-03-01T09:26:26;2.20;99.90
4520;DHT22;2272;49.226;8.108;2023-03-01T09:28:56;2.30;99.90
4520;DHT22;2272;49.226;8.108;2023-03-01T09:31:24;2.40;99.90
4520;DHT22;2272;49.226;8.108;2023-03-01T09:33:52;2.50;99.90
4520;DHT22;2272;49.226;8.108;2023-03-01T09:36:20;2.50;99.90
4520;DHT22;2272;49.226;8.108;2023-03-01T09:38:49;2.50;99.90
4520;DHT22;2272;49.226;8.108;2023-03-01T09:44:20;2.80;99.90
4520;DHT22;2272;49.226;8.108;2023-03-01T09:46:47;2.90;99.90
4520;DHT22;2272;49.226;8.108;2023-03-01T09:49:17;3.10;99.90
4520;DHT22;2272;49.226;8.108;2023-03-01T09:51:55;3.20;99.90
4520;DHT22;2272;49.226;8.108;2023-03-01T09:54:23;3.20;99.90
4520;DHT22;2272;49.226;8.108;2023-03-01T09:57:04;3.30;99.90
4520;DHT22;2272;49.226;8.108;2023-03-01T09:59:40;3.50;99.90
4520;DHT22;2272;49.226;8.108;2023-03-01T10:02:21;3.70;99.90
4520;DHT22;2272;49.226;8.108;2023-03-01T10:04:50;3.70;99.90
4520;DHT22;2272;49.226;8.108;2023-03-01T10:07:27;3.80;99.90
4520;DHT22;2272;49.226;8.108;2023-03-01T10:09:56;3.90;99.90
4520;DHT22;2272;49.226;8.108;2023-03-01T10:12:26;3.90;99.90
4520;DHT22;2272;49.226;8.108;2023-03-01T10:14:59;3.90;99.90
4520;DHT22;2272;49.226;8.108;2023-03-01T10:17:32;3.90;99.90
4520;DHT22;2272;49.226;8.108;2023-03-01T10:20:14;3.90;99.90
4520;DHT22;2272;49.226;8.108;2023-03-01T10:22:42;3.90;99.90
4520;DHT22;2272;49.226;8.108;2023-03-01T10:25:14;3.90;99.90
4520;DHT22;2272;49.226;8.108;2023-03-01T10:27:49;3.80;99.90
4520;DHT22;2272;49.226;8.108;2023-03-01T10:30:20;3.90;99.90
4520;DHT22;2272;49.226;8.108;2023-03-01T10:32:49;4.10;99.90
4520;DHT22;2272;49.226;8.108;2023-03-01T10:35:19;4.20;99.90
4520;DHT22;2272;49.226;8.108;2023-03-01T10:37:57;4.30;99.90
4520;DHT22;2272;49.226;8.108;2023-03-01T10:40:25;4.30;99.90
4520;DHT22;2272;49.226;8.108;2023-03-01T10:42:52;4.40;99.90
4520;DHT22;2272;49.226;8.108;2023-03-01T10:45:33;4.40;99.90
4520;DHT22;2272;49.226;8.108;2023-03-01T10:48:05;4.50;99.90
4520;DHT22;2272;49.226;8.108;2023-03-01T10:50:32;4.50;99.90
4520;DHT22;2272;49.226;8.108;2023-03-01T10:53:00;4.40;99.90
4520;DHT22;2272;49.226;8.108;2023-03-01T10:55:31;4.30;99.90
4520;DHT22;2272;49.226;8.108;2023-03-01T10:58:08;4.40;99.90
4520;DHT22;2272;49.226;8.108;2023-03-01T11:00:47;4.40;99.90
4520;DHT22;2272;49.226;8.108;2023-03-01T11:03:18;4.40;99.90
4520;DHT22;2272;49.226;8.108;2023-03-01T11:05:54;4.40;99.90
4520;DHT22;2272;49.226;8.108;2023-03-01T11:08:30;4.50;99.90
4520;DHT22;2272;49.226;8.108;2023-03-01T11:11:10;4.50;99.90
4520;DHT22;2272;49.226;8.108;2023-03-01T11:13:57;4.60;99.90
4520;DHT22;2272;49.226;8.108;2023-03-01T11:16:32;4.70;99.90
4520;DHT22;2272;49.226;8.108;2023-03-01T11:19:13;4.70;99.90
4520;DHT22;2272;49.226;8.108;2023-03-01T11:21:41;4.70;99.90
4520;DHT22;2272;49.226;8.108;2023-03-01T11:24:11;4.70;99.90
4520;DHT22;2272;49.226;8.108;2023-03-01T11:26:42;4.90;99.90
4520;DHT22;2272;49.226;8.108;2023-03-01T11:29:16;4.90;99.90
4520;DHT22;2272;49.226;8.108;2023-03-01T11:31:45;5.00;99.90
4520;DHT22;2272;49.226;8.108;2023-03-01T11:34:14;5.00;99.90
4520;DHT22;2272;49.226;8.108;2023-03-01T11:36:46;5.00;99.90
4520;DHT22;2272;49.226;8.108;2023-03-01T11:39:21;5.00;99.90
4520;DHT22;2272;49.226;8.108;2023-03-01T11:41:56;5.00;99.90
4520;DHT22;2272;49.226;8.108;2023-03-01T11:44:28;5.10;99.90
4520;DHT22;2272;49.226;8.108;2023-03-01T11:47:15;5.00;99.90
4520;DHT22;2272;49.226;8.108;2023-03-01T11:49:58;5.00;99.90
4520;DHT22;2272;49.226;8.108;2023-03-01T11:52:33;5.10;99.90
4520;DHT22;2272;49.226;8.108;2023-03-01T11:55:17;5.00;99.90
4520;DHT22;2272;49.226;8.108;2023-03-01T11:57:59;5.10;99.90
4520;DHT22;2272;49.226;8.108;2023-03-01T12:00:44;5.10;99.90
4520;DHT22;2272;49.226;8.108;2023-03-01T12:03:30;5.20;99.90
4520;DHT22;2272;49.226;8.108;2023-03-01T12:06:22;5.30;99.90
4520;DHT22;2272;49.226;8.108;2023-03-01T12:08:59;5.40;99.90
4520;DHT22;2272;49.226;8.108;2023-03-01T12:11:39;5.40;99.90
4520;DHT22;2272;49.226;8.108;2023-03-01T12:14:28;5.50;99.90
4520;DHT22;2272;49.226;8.108;2023-03-01T12:17:12;5.60;99.90
4520;DHT22;2272;49.226;8.108;2023-03-01T12:20:00;5.70;99.90
4520;DHT22;2272;49.226;8.108;2023-03-01T12:22:30;5.80;99.90
4520;DHT22;2272;49.226;8.108;2023-03-01T12:25:16;5.90;99.90
4520;DHT22;2272;49.226;8.108;2023-03-01T12:28:16;6.00;99.90
4520;DHT22;2272;49.226;8.108;2023-03-01T12:31:13;6.00;99.90
4520;DHT22;2272;49.226;8.108;2023-03-01T12:33:50;6.10;99.90
4520;DHT22;2272;49.226;8.108;2023-03-01T12:36:38;6.20;99.90
4520;DHT22;2272;49.226;8.108;2023-03-01T12:39:19;6.30;99.90
4520;DHT22;2272;49.226;8.108;2023-03-01T12:41:56;6.40;99.90
4520;DHT22;2272;49.226;8.108;2023-03-01T12:44:35;6.40;99.90
4520;DHT22;2272;49.226;8.108;2023-03-01T12:47:30;6.30;99.90
4520;DHT22;2272;49.226;8.108;2023-03-01T12:50:03;6.50;99.90
4520;DHT22;2272;49.226;8.108;2023-03-01T12:52:36;6.50;99.90
4520;DHT22;2272;49.226;8.108;2023-03-01T12:55:24;6.60;99.90
4520;DHT22;2272;49.226;8.108;2023-03-01T12:57:59;6.60;99.90
4520;DHT22;2272;49.226;8.108;2023-03-01T13:00:31;6.70;99.90
4520;DHT22;2272;49.226;8.108;2023-03-01T13:03:10;6.80;99.90
4520;DHT22;2272;49.226;8.108;2023-03-01T13:05:42;6.70;99.90
4520;DHT22;2272;49.226;8.108;2023-03-01T13:08:18;6.70;99.90
4520;DHT22;2272;49.226;8.108;2023-03-01T13:10:49;6.70;99.90
4520;DHT22;2272;49.226;8.108;2023-03-01T13:13:21;6.70;99.90
4520;DHT22;2272;49.226;8.108;2023-03-01T13:15:49;6.80;99.90
4520;DHT22;2272;49.226;8.108;2023-03-01T13:18:33;6.70;99.90
4520;DHT22;2272;49.226;8.108;2023-03-01T13:21:02;6.70;99.90
4520;DHT22;2272;49.226;8.108;2023-03-01T13:23:36;6.70;99.90
4520;DHT22;2272;49.226;8.108;2023-03-01T13:26:10;6.90;99.90
4520;DHT22;2272;49.226;8.108;2023-03-01T13:28:57;6.80;99.90
4520;DHT22;2272;49.226;8.108;2023-03-01T13:31:58;6.90;99.90
4520;DHT22;2272;49.226;8.108;2023-03-01T13:34:55;7.00;99.90
4520;DHT22;2272;49.226;8.108;2023-03-01T13:37:43;7.00;99.90
4520;DHT22;2272;49.226;8.108;2023-03-01T13:43:31;7.10;99.90
4520;DHT22;2272;49.226;8.108;2023-03-01T13:45:58;7.10;99.90
4520;DHT22;2272;49.226;8.108;2023-03-01T13:48:28;7.10;99.90
4520;DHT22;2272;49.226;8.108;2023-03-01T13:50:59;7.20;99.90
4520;DHT22;2272;49.226;8.108;2023-03-01T13:53:31;7.20;99.90
4520;DHT22;2272;49.226;8.108;2023-03-01T13:56:02;7.20;99.90
4520;DHT22;2272;49.226;8.108;2023-03-01T13:58:30;7.20;99.90
4520;DHT22;2272;49.226;8.108;2023-03-01T14:00:59;7.40;99.90
4520;DHT22;2272;49.226;8.108;2023-03-01T14:03:27;7.50;99.90
4520;DHT22;2272;49.226;8.108;2023-03-01T14:06:01;7.60;99.90
4520;DHT22;2272;49.226;8.108;2023-03-01T14:08:29;7.60;99.90
4520;DHT22;2272;49.226;8.108;2023-03-01T14:14:10;7.60;99.90
4520;DHT22;2272;49.226;8.108;2023-03-01T14:16:47;7.50;99.90
4520;DHT22;2272;49.226;8.108;2023-03-01T14:19:18;7.40;99.90
4520;DHT22;2272;49.226;8.108;2023-03-01T14:21:48;7.40;99.90
4520;DHT22;2272;49.226;8.108;2023-03-01T14:24:18;7.40;99.90
4520;DHT22;2272;49.226;8.108;2023-03-01T14:26:46;7.50;99.90
4520;DHT22;2272;49.226;8.108;2023-03-01T14:29:27;7.60;99.90
4520;DHT22;2272;49.226;8.108;2023-03-01T14:31:54;7.60;99.90
4520;DHT22;2272;49.226;8.108;2023-03-01T14:34:22;7.60;99.90
4520;DHT22;2272;49.226;8.108;2023-03-01T14:36:51;7.60;99.90
4520;DHT22;2272;49.226;8.108;2023-03-01T14:39:19;7.50;99.90
4520;DHT22;2272;49.226;8.108;2023-03-01T14:41:46;7.50;99.90
4520;DHT22;2272;49.226;8.108;2023-03-01T14:44:16;7.50;99.90
4520;DHT22;2272;49.226;8.108;2023-03-01T14:46:45;7.50;99.90
4520;DHT22;2272;49.226;8.108;2023-03-01T14:49:14;7.60;99.90
4520;DHT22;2272;49.226;8.108;2023-03-01T14:51:43;7.60;99.90
4520;DHT22;2272;49.226;8.108;2023-03-01T14:54:21;7.70;99.90
4520;DHT22;2272;49.226;8.108;2023-03-01T14:56:51;7.70;99.90
4520;DHT22;2272;49.226;8.108;2023-03-01T14:59:21;7.70;99.90
4520;DHT22;2272;49.226;8.108;2023-03-01T15:01:48;7.60;99.90
4520;DHT22;2272;49.226;8.108;2023-03-01T15:04:15;7.60;99.90
4520;DHT22;2272;49.226;8.108;2023-03-01T15:06:42;7.60;99.90
4520;DHT22;2272;49.226;8.108;2023-03-01T15:09:13;7.60;99.90
4520;DHT22;2272;49.226;8.108;2023-03-01T15:11:43;7.60;99.90
4520;DHT22;2272;49.226;8.108;2023-03-01T15:14:38;7.60;99.90
4520;DHT22;2272;49.226;8.108;2023-03-01T15:17:19;7.70;99.90
4520;DHT22;2272;49.226;8.108;2023-03-01T15:19:47;7.60;99.90
4520;DHT22;2272;49.226;8.108;2023-03-01T15:22:15;7.60;99.90
4520;DHT22;2272;49.226;8.108;2023-03-01T15:24:46;7.60;99.90
4520;DHT22;2272;49.226;8.108;2023-03-01T15:27:18;7.60;99.90
4520;DHT22;2272;49.226;8.108;2023-03-01T15:29:50;7.50;99.90
4520;DHT22;2272;49.226;8.108;2023-03-01T15:32:26;7.50;99.90
4520;DHT22;2272;49.226;8.108;2023-03-01T15:34:53;7.50;99.90
4520;DHT22;2272;49.226;8.108;2023-03-01T15:37:38;7.50;99.90
4520;DHT22;2272;49.226;8.108;2023-03-01T15:40:18;7.40;99.90
4520;DHT22;2272;49.226;8.108;2023-03-01T15:42:47;7.40;99.90
4520;DHT22;2272;49.226;8.108;2023-03-01T15:45:22;7.40;99.90
4520;DHT22;2272;49.226;8.108;2023-03-01T15:47:52;7.40;99.90
4520;DHT22;2272;49.226;8.108;2023-03-01T15:50:22;7.30;99.90
4520;DHT22;2272;49.226;8.108;2023-03-01T15:52:50;7.30;99.90
4520;DHT22;2272;49.226;8.108;2023-03-01T15:55:19;7.30;99.90
4520;DHT22;2272;49.226;8.108;2023-03-01T15:57:48;7.20;99.90
4520;DHT22;2272;49.226;8.108;2023-03-01T16:00:16;7.20;99.90
4520;DHT22;2272;49.226;8.108;2023-03-01T16:02:44;7.10;99.90
4520;DHT22;2272;49.226;8.108;2023-03-01T16:05:17;7.10;99.90
4520;DHT22;2272;49.226;8.108;2023-03-01T16:07:45;7.00;99.90
4520;DHT22;2272;49.226;8.108;2023-03-01T16:10:11;6.90;99.90
4520;DHT22;2272;49.226;8.108;2023-03-01T16:12:38;6.80;99.90
4520;DHT22;2272;49.226;8.108;2023-03-01T16:15:15;6.80;99.90
4520;DHT22;2272;49.226;8.108;2023-03-01T16:17:42;6.70;99.90
4520;DHT22;2272;49.226;8.108;2023-03-01T16:20:10;6.60;99.90
4520;DHT22;2272;49.226;8.108;2023-03-01T16:22:37;6.50;99.90
4520;DHT22;2272;49.226;8.108;2023-03-01T16:25:04;6.50;99.90
4520;DHT22;2272;49.226;8.108;2023-03-01T16:27:31;6.40;99.90
4520;DHT22;2272;49.226;8.108;2023-03-01T16:29:57;6.40;99.90
4520;DHT22;2272;49.226;8.108;2023-03-01T16:32:25;6.20;99.90
4520;DHT22;2272;49.226;8.108;2023-03-01T16:34:52;6.20;99.90
4520;DHT22;2272;49.226;8.108;2023-03-01T16:37:19;6.10;99.90
4520;DHT22;2272;49.226;8.108;2023-03-01T16:39:47;6.00;99.90
4520;DHT22;2272;49.226;8.108;2023-03-01T16:42:15;6.00;99.90
4520;DHT22;2272;49.226;8.108;2023-03-01T16:44:44;5.80;99.90